sensor_id;sensor_type;location;lat;lon;timestamp;P1;durP1;ratioP1;P2;durP2;ratioP2
54557;SDS011;40452;50.080;20.040;2023-06-24T00:02:16;4.80;;;3.63;;
54557;SDS011;40452;50.080;20.040;2023-06-24T00:04:41;6.97;;;3.25;;
54557;SDS011;40452;50.080;20.040;2023-06-24T00:07:07;6.25;;;3.92;;
54557;SDS011;40452;50.080;20.040;2023-06-24T00:09:35;8.13;;;3.20;;
54557;SDS011;40452;50.080;20.040;2023-06-24T00:12:01;6.97;;;3.40;;
54557;SDS011;40452;50.080;20.040;2023-06-24T00:14:27;6.80;;;3.60;;
54557;SDS011;40452;50.080;20.040;2023-06-24T00:16:53;7.70;;;3.75;;
54557;SDS011;40452;50.080;20.040;2023-06-24T00:19:23;4.30;;;3.38;;
54557;SDS011;40452;50.080;20.040;2023-06-24T00:21:51;4.50;;;3.55;;
54557;SDS011;40452;50.080;20.040;2023-06-24T00:24:17;5.43;;;3.70;;
54557;SDS011;40452;50.080;20.040;2023-06-24T00:26:53;4.35;;;3.20;;
54557;SDS011;40452;50.080;20.040;2023-06-24T00:29:19;6.82;;;3.22;;
54557;SDS011;40452;50.080;20.040;2023-06-24T00:31:44;4.88;;;3.13;;
54557;SDS011;40452;50.080;20.040;2023-06-24T00:34:10;5.88;;;3.13;;
54557;SDS011;40452;50.080;20.040;2023-06-24T00:36:35;5.40;;;3.20;;
54557;SDS011;40452;50.080;20.040;2023-06-24T00:39:03;6.18;;;3.28;;
54557;SDS011;40452;50.080;20.040;2023-06-24T00:41:30;4.88;;;3.03;;
54557;SDS011;40452;50.080;20.040;2023-06-24T00:43:56;5.05;;;2.85;;
54557;SDS011;40452;50.080;20.040;2023-06-24T00:46:24;4.90;;;2.90;;
54557;SDS011;40452;50.080;20.040;2023-06-24T00:48:51;4.13;;;2.97;;
54557;SDS011;40452;50.080;20.040;2023-06-24T00:51:20;5.03;;;2.92;;
54557;SDS011;40452;50.080;20.040;2023-06-24T00:53:58;3.88;;;2.85;;
54557;SDS011;40452;50.080;20.040;2023-06-24T00:56:31;4.72;;;2.83;;
54557;SDS011;40452;50.080;20.040;2023-06-24T00:58:59;6.10;;;2.88;;
54557;SDS011;40452;50.080;20.040;2023-06-24T01:01:28;5.97;;;3.40;;
54557;SDS011;40452;50.080;20.040;2023-06-24T01:04:00;5.18;;;2.95;;
54557;SDS011;40452;50.080;20.040;2023-06-24T04:23:06;2.72;;;2.10;;
54557;SDS011;40452;50.080;20.040;2023-06-24T04:25:34;5.32;;;2.17;;
54557;SDS011;40452;50.080;20.040;2023-06-24T04:27:59;10.30;;;2.47;;
54557;SDS011;40452;50.080;20.040;2023-06-24T04:30:25;4.68;;;2.53;;
54557;SDS011;40452;50.080;20.040;2023-06-24T04:32:50;7.82;;;2.33;;
54557;SDS011;40452;50.080;20.040;2023-06-24T04:35:16;6.07;;;2.88;;
54557;SDS011;40452;50.080;20.040;2023-06-24T04:37:42;6.15;;;2.72;;
54557;SDS011;40452;50.080;20.040;2023-06-24T04:40:08;4.28;;;2.60;;
54557;SDS011;40452;50.080;20.040;2023-06-24T04:42:37;4.43;;;2.38;;
54557;SDS011;40452;50.080;20.040;2023-06-24T04:45:03;4.15;;;2.50;;
54557;SDS011;40452;50.080;20.040;2023-06-24T04:47:30;5.57;;;2.83;;
54557;SDS011;40452;50.080;20.040;2023-06-24T04:49:56;4.05;;;2.88;;
54557;SDS011;40452;50.080;20.040;2023-06-24T04:52:23;4.32;;;2.67;;
54557;SDS011;40452;50.080;20.040;2023-06-24T04:54:48;4.25;;;2.47;;
54557;SDS011;40452;50.080;20.040;2023-06-24T04:57:28;3.17;;;2.22;;
54557;SDS011;40452;50.080;20.040;2023-06-24T04:59:55;4.78;;;2.63;;
54557;SDS011;40452;50.080;20.040;2023-06-24T05:02:21;6.97;;;3.08;;
54557;SDS011;40452;50.080;20.040;2023-06-24T05:04:47;8.63;;;2.83;;
54557;SDS011;40452;50.080;20.040;2023-06-24T05:07:13;4.63;;;2.85;;
54557;SDS011;40452;50.080;20.040;2023-06-24T05:09:38;5.07;;;2.92;;
54557;SDS011;40452;50.080;20.040;2023-06-24T05:12:04;6.78;;;3.05;;
54557;SDS011;40452;50.080;20.040;2023-06-24T05:14:30;9.57;;;3.05;;
54557;SDS011;40452;50.080;20.040;2023-06-24T05:16:56;10.93;;;2.95;;
54557;SDS011;40452;50.080;20.040;2023-06-24T05:19:21;5.93;;;2.80;;
54557;SDS011;40452;50.080;20.040;2023-06-24T05:21:47;5.57;;;2.70;;
54557;SDS011;40452;50.080;20.040;2023-06-24T05:24:13;4.25;;;2.70;;
54557;SDS011;40452;50.080;20.040;2023-06-24T05:26:38;4.95;;;2.70;;
54557;SDS011;40452;50.080;20.040;2023-06-24T05:29:04;6.55;;;3.00;;
54557;SDS011;40452;50.080;20.040;2023-06-24T05:31:29;3.65;;;2.50;;
54557;SDS011;40452;50.080;20.040;2023-06-24T05:33:55;6.25;;;2.70;;
54557;SDS011;40452;50.080;20.040;2023-06-24T05:36:20;6.30;;;3.25;;
54557;SDS011;40452;50.080;20.040;2023-06-24T05:38:46;6.10;;;2.95;;
54557;SDS011;40452;50.080;20.040;2023-06-24T05:41:13;5.95;;;2.97;;
54557;SDS011;40452;50.080;20.040;2023-06-24T05:43:39;4.30;;;2.67;;
54557;SDS011;40452;50.080;20.040;2023-06-24T05:46:04;5.47;;;2.72;;
54557;SDS011;40452;50.080;20.040;2023-06-24T05:48:30;7.75;;;2.88;;
54557;SDS011;40452;50.080;20.040;2023-06-24T05:50:55;3.50;;;2.72;;
54557;SDS011;40452;50.080;20.040;2023-06-24T05:53:21;4.20;;;2.50;;
54557;SDS011;40452;50.080;20.040;2023-06-24T05:55:47;10.50;;;2.95;;
54557;SDS011;40452;50.080;20.040;2023-06-24T05:58:13;5.30;;;2.78;;
54557;SDS011;40452;50.080;20.040;2023-06-24T06:00:38;3.58;;;2.70;;
54557;SDS011;40452;50.080;20.040;2023-06-24T06:03:04;9.45;;;3.03;;
54557;SDS011;40452;50.080;20.040;2023-06-24T06:05:29;6.38;;;2.83;;
54557;SDS011;40452;50.080;20.040;2023-06-24T06:07:55;9.27;;;3.15;;
54557;SDS011;40452;50.080;20.040;2023-06-24T06:10:20;7.10;;;2.70;;
54557;SDS011;40452;50.080;20.040;2023-06-24T06:12:46;5.80;;;2.83;;
54557;SDS011;40452;50.080;20.040;2023-06-24T06:15:12;4.18;;;3.20;;
54557;SDS011;40452;50.080;20.040;2023-06-24T06:17:37;6.15;;;3.63;;
54557;SDS011;40452;50.080;20.040;2023-06-24T06:20:03;6.60;;;3.55;;
54557;SDS011;40452;50.080;20.040;2023-06-24T06:22:29;10.27;;;3.30;;
54557;SDS011;40452;50.080;20.040;2023-06-24T06:24:57;7.68;;;3.58;;
54557;SDS011;40452;50.080;20.040;2023-06-24T06:27:22;4.90;;;3.50;;
54557;SDS011;40452;50.080;20.040;2023-06-24T06:29:48;5.88;;;3.40;;
54557;SDS011;40452;50.080;20.040;2023-06-24T06:32:13;6.68;;;3.70;;
54557;SDS011;40452;50.080;20.040;2023-06-24T06:34:39;6.75;;;3.35;;
54557;SDS011;40452;50.080;20.040;2023-06-24T06:37:05;5.63;;;3.42;;
54557;SDS011;40452;50.080;20.040;2023-06-24T06:39:30;8.05;;;3.67;;
54557;SDS011;40452;50.080;20.040;2023-06-24T06:41:56;7.75;;;3.50;;
54557;SDS011;40452;50.080;20.040;2023-06-24T06:44:22;8.85;;;3.80;;
54557;SDS011;40452;50.080;20.040;2023-06-24T06:46:47;7.88;;;4.07;;
54557;SDS011;40452;50.080;20.040;2023-06-24T06:49:13;6.30;;;3.60;;
54557;SDS011;40452;50.080;20.040;2023-06-24T06:51:38;4.97;;;3.50;;
54557;SDS011;40452;50.080;20.040;2023-06-24T06:54:04;6.78;;;3.70;;
54557;SDS011;40452;50.080;20.040;2023-06-24T06:56:29;7.15;;;3.80;;
54557;SDS011;40452;50.080;20.040;2023-06-24T06:58:55;7.18;;;3.60;;
54557;SDS011;40452;50.080;20.040;2023-06-24T07:01:21;7.40;;;3.45;;
54557;SDS011;40452;50.080;20.040;2023-06-24T07:03:46;7.70;;;3.58;;
54557;SDS011;40452;50.080;20.040;2023-06-24T07:06:14;5.93;;;3.78;;
54557;SDS011;40452;50.080;20.040;2023-06-24T07:08:39;5.18;;;3.42;;
54557;SDS011;40452;50.080;20.040;2023-06-24T07:11:05;5.25;;;4.03;;
54557;SDS011;40452;50.080;20.040;2023-06-24T07:13:30;6.38;;;3.53;;
54557;SDS011;40452;50.080;20.040;2023-06-24T07:15:56;5.97;;;3.88;;
54557;SDS011;40452;50.080;20.040;2023-06-24T07:18:22;7.00;;;4.07;;
54557;SDS011;40452;50.080;20.040;2023-06-24T07:20:48;10.45;;;4.97;;
54557;SDS011;40452;50.080;20.040;2023-06-24T07:23:14;9.38;;;6.10;;
54557;SDS011;40452;50.080;20.040;2023-06-24T07:25:39;8.60;;;6.20;;
54557;SDS011;40452;50.080;20.040;2023-06-24T07:28:05;11.50;;;7.20;;
54557;SDS011;40452;50.080;20.040;2023-06-24T07:30:30;13.40;;;6.78;;
54557;SDS011;40452;50.080;20.040;2023-06-24T07:32:56;14.55;;;7.55;;
54557;SDS011;40452;50.080;20.040;2023-06-24T07:35:30;12.07;;;6.60;;
54557;SDS011;40452;50.080;20.040;2023-06-24T07:37:56;9.63;;;6.80;;
54557;SDS011;40452;50.080;20.040;2023-06-24T07:40:22;10.60;;;6.32;;
54557;SDS011;40452;50.080;20.040;2023-06-24T07:42:47;9.45;;;6.25;;
54557;SDS011;40452;50.080;20.040;2023-06-24T07:45:13;18.15;;;6.65;;
54557;SDS011;40452;50.080;20.040;2023-06-24T07:47:39;9.65;;;5.25;;
54557;SDS011;40452;50.080;20.040;2023-06-24T07:50:04;9.40;;;5.57;;
54557;SDS011;40452;50.080;20.040;2023-06-24T07:52:31;11.85;;;5.90;;
54557;SDS011;40452;50.080;20.040;2023-06-24T07:54:56;8.25;;;5.82;;
54557;SDS011;40452;50.080;20.040;2023-06-24T07:57:22;8.80;;;5.50;;
54557;SDS011;40452;50.080;20.040;2023-06-24T07:59:48;14.77;;;9.63;;
54557;SDS011;40452;50.080;20.040;2023-06-24T08:02:13;14.55;;;9.40;;
54557;SDS011;40452;50.080;20.040;2023-06-24T08:04:39;16.90;;;9.88;;
54557;SDS011;40452;50.080;20.040;2023-06-24T08:07:05;17.13;;;9.90;;
54557;SDS011;40452;50.080;20.040;2023-06-24T08:09:30;13.90;;;8.80;;
54557;SDS011;40452;50.080;20.040;2023-06-24T08:11:56;14.75;;;8.93;;
54557;SDS011;40452;50.080;20.040;2023-06-24T08:14:21;13.90;;;8.07;;
54557;SDS011;40452;50.080;20.040;2023-06-24T08:16:47;12.55;;;7.70;;
54557;SDS011;40452;50.080;20.040;2023-06-24T08:19:13;14.48;;;8.18;;
54557;SDS011;40452;50.080;20.040;2023-06-24T08:21:39;11.70;;;7.93;;
54557;SDS011;40452;50.080;20.040;2023-06-24T08:24:06;10.13;;;7.05;;
54557;SDS011;40452;50.080;20.040;2023-06-24T08:26:32;17.83;;;7.32;;
54557;SDS011;40452;50.080;20.040;2023-06-24T08:28:58;21.00;;;7.55;;
54557;SDS011;40452;50.080;20.040;2023-06-24T08:31:27;12.82;;;6.57;;
54557;SDS011;40452;50.080;20.040;2023-06-24T08:33:53;10.68;;;5.30;;
54557;SDS011;40452;50.080;20.040;2023-06-24T08:36:21;10.00;;;5.97;;
54557;SDS011;40452;50.080;20.040;2023-06-24T08:38:54;7.40;;;5.50;;
54557;SDS011;40452;50.080;20.040;2023-06-24T08:41:20;11.85;;;5.72;;
54557;SDS011;40452;50.080;20.040;2023-06-24T08:43:47;8.50;;;5.93;;
54557;SDS011;40452;50.080;20.040;2023-06-24T08:46:12;11.80;;;5.90;;
54557;SDS011;40452;50.080;20.040;2023-06-24T08:48:40;9.45;;;5.35;;
54557;SDS011;40452;50.080;20.040;2023-06-24T08:51:08;10.77;;;5.75;;
54557;SDS011;40452;50.080;20.040;2023-06-24T08:53:35;9.50;;;5.85;;
54557;SDS011;40452;50.080;20.040;2023-06-24T08:56:02;7.55;;;5.43;;
54557;SDS011;40452;50.080;20.040;2023-06-24T08:58:29;7.50;;;5.38;;
54557;SDS011;40452;50.080;20.040;2023-06-24T09:00:55;7.18;;;5.13;;
54557;SDS011;40452;50.080;20.040;2023-06-24T09:03:21;7.95;;;5.40;;
54557;SDS011;40452;50.080;20.040;2023-06-24T09:05:47;6.90;;;5.35;;
54557;SDS011;40452;50.080;20.040;2023-06-24T09:08:13;8.75;;;4.93;;
54557;SDS011;40452;50.080;20.040;2023-06-24T09:10:40;7.50;;;5.45;;
54557;SDS011;40452;50.080;20.040;2023-06-24T09:13:06;6.22;;;5.30;;
54557;SDS011;40452;50.080;20.040;2023-06-24T09:15:36;9.65;;;5.55;;
54557;SDS011;40452;50.080;20.040;2023-06-24T09:18:05;7.03;;;5.00;;
54557;SDS011;40452;50.080;20.040;2023-06-24T09:20:31;7.90;;;4.97;;
54557;SDS011;40452;50.080;20.040;2023-06-24T09:23:00;8.32;;;5.20;;
54557;SDS011;40452;50.080;20.040;2023-06-24T09:25:27;7.25;;;5.10;;
54557;SDS011;40452;50.080;20.040;2023-06-24T09:27:53;7.45;;;5.18;;
54557;SDS011;40452;50.080;20.040;2023-06-24T09:30:21;6.72;;;5.13;;
54557;SDS011;40452;50.080;20.040;2023-06-24T09:32:51;6.90;;;5.40;;
54557;SDS011;40452;50.080;20.040;2023-06-24T09:35:18;8.35;;;5.03;;
54557;SDS011;40452;50.080;20.040;2023-06-24T09:37:52;6.22;;;4.72;;
54557;SDS011;40452;50.080;20.040;2023-06-24T09:40:19;7.05;;;4.75;;
54557;SDS011;40452;50.080;20.040;2023-06-24T09:42:48;5.97;;;5.05;;
54557;SDS011;40452;50.080;20.040;2023-06-24T09:45:27;6.93;;;5.03;;
54557;SDS011;40452;50.080;20.040;2023-06-24T09:47:54;11.40;;;5.50;;
54557;SDS011;40452;50.080;20.040;2023-06-24T09:50:21;9.63;;;4.82;;
54557;SDS011;40452;50.080;20.040;2023-06-24T09:52:47;8.85;;;4.88;;
54557;SDS011;40452;50.080;20.040;2023-06-24T09:55:14;11.80;;;5.50;;
54557;SDS011;40452;50.080;20.040;2023-06-24T09:57:44;12.27;;;5.70;;
54557;SDS011;40452;50.080;20.040;2023-06-24T10:00:12;14.05;;;4.90;;
54557;SDS011;40452;50.080;20.040;2023-06-24T10:02:43;6.90;;;5.00;;
54557;SDS011;40452;50.080;20.040;2023-06-24T10:05:10;6.28;;;4.78;;
54557;SDS011;40452;50.080;20.040;2023-06-24T10:07:39;9.07;;;4.80;;
54557;SDS011;40452;50.080;20.040;2023-06-24T10:10:06;8.80;;;5.15;;
54557;SDS011;40452;50.080;20.040;2023-06-24T10:12:33;6.65;;;4.43;;
54557;SDS011;40452;50.080;20.040;2023-06-24T10:14:59;7.20;;;4.70;;
54557;SDS011;40452;50.080;20.040;2023-06-24T10:17:26;7.60;;;4.47;;
54557;SDS011;40452;50.080;20.040;2023-06-24T10:19:51;6.63;;;4.10;;
54557;SDS011;40452;50.080;20.040;2023-06-24T10:22:21;7.03;;;4.53;;
54557;SDS011;40452;50.080;20.040;2023-06-24T10:24:49;8.90;;;6.15;;
54557;SDS011;40452;50.080;20.040;2023-06-24T10:27:17;8.10;;;5.22;;
54557;SDS011;40452;50.080;20.040;2023-06-24T10:29:50;10.00;;;5.00;;
54557;SDS011;40452;50.080;20.040;2023-06-24T10:32:19;8.60;;;4.97;;
54557;SDS011;40452;50.080;20.040;2023-06-24T10:34:46;8.13;;;4.88;;
54557;SDS011;40452;50.080;20.040;2023-06-24T10:39:50;13.00;;;5.15;;
54557;SDS011;40452;50.080;20.040;2023-06-24T10:44:55;9.60;;;4.72;;
54557;SDS011;40452;50.080;20.040;2023-06-24T10:47:33;7.65;;;4.75;;
54557;SDS011;40452;50.080;20.040;2023-06-24T10:49:59;9.35;;;4.63;;
54557;SDS011;40452;50.080;20.040;2023-06-24T10:52:25;7.80;;;4.95;;
54557;SDS011;40452;50.080;20.040;2023-06-24T10:54:52;5.80;;;4.30;;
54557;SDS011;40452;50.080;20.040;2023-06-24T10:57:24;8.00;;;4.53;;
54557;SDS011;40452;50.080;20.040;2023-06-24T10:59:55;8.70;;;4.90;;
54557;SDS011;40452;50.080;20.040;2023-06-24T11:04:56;8.82;;;4.88;;
54557;SDS011;40452;50.080;20.040;2023-06-24T11:07:26;5.85;;;4.60;;
54557;SDS011;40452;50.080;20.040;2023-06-24T11:12:39;8.20;;;4.78;;
54557;SDS011;40452;50.080;20.040;2023-06-24T11:15:09;13.07;;;5.43;;
54557;SDS011;40452;50.080;20.040;2023-06-24T11:17:38;9.30;;;4.85;;
54557;SDS011;40452;50.080;20.040;2023-06-24T11:20:08;6.97;;;4.93;;
54557;SDS011;40452;50.080;20.040;2023-06-24T11:22:42;6.55;;;5.05;;
54557;SDS011;40452;50.080;20.040;2023-06-24T11:25:18;9.73;;;5.00;;
54557;SDS011;40452;50.080;20.040;2023-06-24T11:27:45;7.32;;;4.90;;
54557;SDS011;40452;50.080;20.040;2023-06-24T11:30:11;11.32;;;4.75;;
54557;SDS011;40452;50.080;20.040;2023-06-24T11:32:37;7.13;;;4.40;;
54557;SDS011;40452;50.080;20.040;2023-06-24T11:35:11;7.50;;;4.57;;
54557;SDS011;40452;50.080;20.040;2023-06-24T11:37:43;6.28;;;4.40;;
54557;SDS011;40452;50.080;20.040;2023-06-24T11:40:10;7.65;;;4.70;;
54557;SDS011;40452;50.080;20.040;2023-06-24T11:42:39;7.15;;;4.60;;
54557;SDS011;40452;50.080;20.040;2023-06-24T11:45:10;8.93;;;4.72;;
54557;SDS011;40452;50.080;20.040;2023-06-24T11:47:37;7.15;;;4.38;;
54557;SDS011;40452;50.080;20.040;2023-06-24T11:50:05;5.97;;;4.50;;
54557;SDS011;40452;50.080;20.040;2023-06-24T11:55:00;14.10;;;5.13;;
54557;SDS011;40452;50.080;20.040;2023-06-24T12:00:20;7.18;;;4.88;;
54557;SDS011;40452;50.080;20.040;2023-06-24T12:02:49;8.80;;;5.22;;
54557;SDS011;40452;50.080;20.040;2023-06-24T12:07:55;8.43;;;4.28;;
54557;SDS011;40452;50.080;20.040;2023-06-24T12:10:31;8.70;;;5.15;;
54557;SDS011;40452;50.080;20.040;2023-06-24T12:12:58;6.18;;;5.00;;
54557;SDS011;40452;50.080;20.040;2023-06-24T12:15:28;7.70;;;4.80;;
54557;SDS011;40452;50.080;20.040;2023-06-24T12:17:54;7.28;;;4.90;;
54557;SDS011;40452;50.080;20.040;2023-06-24T12:20:20;7.72;;;4.72;;
54557;SDS011;40452;50.080;20.040;2023-06-24T12:22:46;7.30;;;4.80;;
54557;SDS011;40452;50.080;20.040;2023-06-24T12:25:13;8.30;;;5.28;;
54557;SDS011;40452;50.080;20.040;2023-06-24T12:27:41;8.63;;;4.90;;
54557;SDS011;40452;50.080;20.040;2023-06-24T12:30:08;8.50;;;4.65;;
54557;SDS011;40452;50.080;20.040;2023-06-24T12:32:35;6.70;;;4.68;;
54557;SDS011;40452;50.080;20.040;2023-06-24T12:35:01;8.15;;;4.88;;
54557;SDS011;40452;50.080;20.040;2023-06-24T12:37:29;7.22;;;4.85;;
54557;SDS011;40452;50.080;20.040;2023-06-24T12:39:56;9.57;;;4.68;;
54557;SDS011;40452;50.080;20.040;2023-06-24T12:42:22;8.52;;;4.55;;
54557;SDS011;40452;50.080;20.040;2023-06-24T12:44:48;5.80;;;4.63;;
54557;SDS011;40452;50.080;20.040;2023-06-24T12:47:13;5.55;;;4.57;;
54557;SDS011;40452;50.080;20.040;2023-06-24T12:49:45;5.78;;;4.00;;
54557;SDS011;40452;50.080;20.040;2023-06-24T12:52:19;6.38;;;4.60;;
54557;SDS011;40452;50.080;20.040;2023-06-24T12:54:45;6.45;;;4.60;;
54557;SDS011;40452;50.080;20.040;2023-06-24T12:57:10;5.72;;;4.25;;
54557;SDS011;40452;50.080;20.040;2023-06-24T12:59:36;7.10;;;4.65;;
54557;SDS011;40452;50.080;20.040;2023-06-24T13:02:02;5.95;;;4.30;;
54557;SDS011;40452;50.080;20.040;2023-06-24T13:04:27;6.63;;;4.25;;
54557;SDS011;40452;50.080;20.040;2023-06-24T13:06:53;5.78;;;3.85;;
54557;SDS011;40452;50.080;20.040;2023-06-24T13:09:24;5.95;;;4.40;;
54557;SDS011;40452;50.080;20.040;2023-06-24T13:11:50;8.13;;;3.88;;
54557;SDS011;40452;50.080;20.040;2023-06-24T13:14:16;6.45;;;3.63;;
54557;SDS011;40452;50.080;20.040;2023-06-24T13:16:41;5.40;;;3.53;;
54557;SDS011;40452;50.080;20.040;2023-06-24T13:19:07;5.40;;;4.10;;
54557;SDS011;40452;50.080;20.040;2023-06-24T13:21:33;23.30;;;14.25;;
54557;SDS011;40452;50.080;20.040;2023-06-24T13:24:01;5.53;;;4.13;;
54557;SDS011;40452;50.080;20.040;2023-06-24T13:26:33;8.35;;;4.45;;
54557;SDS011;40452;50.080;20.040;2023-06-24T13:28:59;6.05;;;4.50;;
54557;SDS011;40452;50.080;20.040;2023-06-24T13:31:24;7.20;;;4.20;;
54557;SDS011;40452;50.080;20.040;2023-06-24T13:33:50;5.78;;;4.20;;
54557;SDS011;40452;50.080;20.040;2023-06-24T13:39:12;6.05;;;3.75;;
54557;SDS011;40452;50.080;20.040;2023-06-24T13:41:41;8.63;;;4.32;;
54557;SDS011;40452;50.080;20.040;2023-06-24T13:44:09;6.57;;;4.43;;
54557;SDS011;40452;50.080;20.040;2023-06-24T13:46:40;6.68;;;4.22;;
54557;SDS011;40452;50.080;20.040;2023-06-24T13:49:06;6.90;;;4.60;;
54557;SDS011;40452;50.080;20.040;2023-06-24T13:51:31;4.72;;;4.00;;
54557;SDS011;40452;50.080;20.040;2023-06-24T13:53:57;6.32;;;4.15;;
54557;SDS011;40452;50.080;20.040;2023-06-24T13:56:23;7.07;;;5.20;;
54557;SDS011;40452;50.080;20.040;2023-06-24T13:58:50;13.13;;;10.13;;
54557;SDS011;40452;50.080;20.040;2023-06-24T14:01:16;9.23;;;7.20;;
54557;SDS011;40452;50.080;20.040;2023-06-24T14:03:42;6.60;;;4.90;;
54557;SDS011;40452;50.080;20.040;2023-06-24T14:06:08;8.50;;;5.00;;
54557;SDS011;40452;50.080;20.040;2023-06-24T14:08:35;7.80;;;5.15;;
54557;SDS011;40452;50.080;20.040;2023-06-24T14:11:03;7.90;;;5.20;;
54557;SDS011;40452;50.080;20.040;2023-06-24T14:13:29;6.43;;;4.65;;
54557;SDS011;40452;50.080;20.040;2023-06-24T14:15:56;6.57;;;4.57;;
54557;SDS011;40452;50.080;20.040;2023-06-24T14:18:22;8.13;;;5.30;;
54557;SDS011;40452;50.080;20.040;2023-06-24T14:20:48;9.48;;;5.70;;
54557;SDS011;40452;50.080;20.040;2023-06-24T14:23:14;7.07;;;5.20;;
54557;SDS011;40452;50.080;20.040;2023-06-24T14:25:40;7.22;;;5.35;;
54557;SDS011;40452;50.080;20.040;2023-06-24T14:28:05;8.48;;;6.10;;
54557;SDS011;40452;50.080;20.040;2023-06-24T14:30:32;8.02;;;5.35;;
54557;SDS011;40452;50.080;20.040;2023-06-24T14:33:00;7.72;;;5.32;;
54557;SDS011;40452;50.080;20.040;2023-06-24T14:35:27;6.85;;;4.70;;
54557;SDS011;40452;50.080;20.040;2023-06-24T14:37:52;10.68;;;4.68;;
54557;SDS011;40452;50.080;20.040;2023-06-24T14:40:18;6.15;;;5.00;;
54557;SDS011;40452;50.080;20.040;2023-06-24T14:42:44;9.18;;;4.85;;
54557;SDS011;40452;50.080;20.040;2023-06-24T14:45:12;9.40;;;5.22;;
54557;SDS011;40452;50.080;20.040;2023-06-24T14:47:40;8.77;;;5.40;;
54557;SDS011;40452;50.080;20.040;2023-06-24T14:50:09;8.40;;;5.10;;
54557;SDS011;40452;50.080;20.040;2023-06-24T14:52:43;7.80;;;5.43;;
54557;SDS011;40452;50.080;20.040;2023-06-24T14:55:09;10.32;;;5.45;;
54557;SDS011;40452;50.080;20.040;2023-06-24T14:57:36;6.57;;;5.22;;
54557;SDS011;40452;50.080;20.040;2023-06-24T15:00:05;5.55;;;4.47;;
54557;SDS011;40452;50.080;20.040;2023-06-24T15:02:32;7.93;;;4.55;;
54557;SDS011;40452;50.080;20.040;2023-06-24T15:04:58;7.38;;;4.78;;
54557;SDS011;40452;50.080;20.040;2023-06-24T15:07:23;7.63;;;4.55;;
54557;SDS011;40452;50.080;20.040;2023-06-24T15:09:49;7.32;;;4.25;;
54557;SDS011;40452;50.080;20.040;2023-06-24T15:12:20;6.22;;;4.25;;
54557;SDS011;40452;50.080;20.040;2023-06-24T15:14:46;6.68;;;4.35;;
54557;SDS011;40452;50.080;20.040;2023-06-24T15:17:13;6.40;;;4.10;;
54557;SDS011;40452;50.080;20.040;2023-06-24T15:19:39;6.80;;;4.45;;
54557;SDS011;40452;50.080;20.040;2023-06-24T15:22:05;5.10;;;3.97;;
54557;SDS011;40452;50.080;20.040;2023-06-24T15:24:30;7.53;;;3.95;;
54557;SDS011;40452;50.080;20.040;2023-06-24T15:26:59;6.70;;;4.00;;
54557;SDS011;40452;50.080;20.040;2023-06-24T15:29:25;6.75;;;4.15;;
54557;SDS011;40452;50.080;20.040;2023-06-24T15:31:50;7.10;;;4.38;;
54557;SDS011;40452;50.080;20.040;2023-06-24T15:34:16;10.80;;;3.88;;
54557;SDS011;40452;50.080;20.040;2023-06-24T15:36:42;8.88;;;3.83;;
54557;SDS011;40452;50.080;20.040;2023-06-24T15:39:08;6.28;;;4.22;;
54557;SDS011;40452;50.080;20.040;2023-06-24T15:41:34;5.70;;;3.80;;
54557;SDS011;40452;50.080;20.040;2023-06-24T15:44:04;5.70;;;3.97;;
54557;SDS011;40452;50.080;20.040;2023-06-24T15:46:30;7.10;;;4.00;;
54557;SDS011;40452;50.080;20.040;2023-06-24T15:48:55;4.97;;;3.15;;
54557;SDS011;40452;50.080;20.040;2023-06-24T15:51:21;5.75;;;3.75;;
54557;SDS011;40452;50.080;20.040;2023-06-24T15:53:46;6.40;;;3.75;;
54557;SDS011;40452;50.080;20.040;2023-06-24T15:56:15;5.63;;;3.53;;
54557;SDS011;40452;50.080;20.040;2023-06-24T15:58:41;6.57;;;3.90;;
54557;SDS011;40452;50.080;20.040;2023-06-24T16:01:06;5.40;;;4.30;;
54557;SDS011;40452;50.080;20.040;2023-06-24T16:03:32;7.05;;;4.25;;
54557;SDS011;40452;50.080;20.040;2023-06-24T16:06:00;5.72;;;4.20;;
54557;SDS011;40452;50.080;20.040;2023-06-24T16:08:29;7.25;;;3.80;;
54557;SDS011;40452;50.080;20.040;2023-06-24T16:10:55;5.10;;;3.75;;
54557;SDS011;40452;50.080;20.040;2023-06-24T16:13:20;7.70;;;4.35;;
54557;SDS011;40452;50.080;20.040;2023-06-24T16:15:46;6.80;;;4.22;;
54557;SDS011;40452;50.080;20.040;2023-06-24T16:18:11;6.30;;;4.35;;
54557;SDS011;40452;50.080;20.040;2023-06-24T16:20:40;5.47;;;3.83;;
54557;SDS011;40452;50.080;20.040;2023-06-24T16:23:05;5.75;;;3.80;;
54557;SDS011;40452;50.080;20.040;2023-06-24T16:25:31;7.57;;;4.00;;
54557;SDS011;40452;50.080;20.040;2023-06-24T16:27:59;7.65;;;3.97;;
54557;SDS011;40452;50.080;20.040;2023-06-24T16:30:25;7.72;;;4.20;;
54557;SDS011;40452;50.080;20.040;2023-06-24T16:32:50;6.57;;;4.38;;
54557;SDS011;40452;50.080;20.040;2023-06-24T16:35:16;14.27;;;5.95;;
54557;SDS011;40452;50.080;20.040;2023-06-24T16:37:42;17.85;;;6.55;;
54557;SDS011;40452;50.080;20.040;2023-06-24T16:40:08;11.20;;;6.88;;
54557;SDS011;40452;50.080;20.040;2023-06-24T16:42:34;9.43;;;5.90;;
54557;SDS011;40452;50.080;20.040;2023-06-24T16:44:59;10.90;;;6.32;;
54557;SDS011;40452;50.080;20.040;2023-06-24T16:47:25;9.07;;;6.47;;
54557;SDS011;40452;50.080;20.040;2023-06-24T16:49:53;13.50;;;7.05;;
54557;SDS011;40452;50.080;20.040;2023-06-24T16:52:20;15.70;;;8.10;;
54557;SDS011;40452;50.080;20.040;2023-06-24T16:54:45;21.45;;;8.70;;
54557;SDS011;40452;50.080;20.040;2023-06-24T16:57:11;16.95;;;9.98;;
54557;SDS011;40452;50.080;20.040;2023-06-24T16:59:36;20.50;;;11.10;;
54557;SDS011;40452;50.080;20.040;2023-06-24T17:02:02;15.90;;;9.32;;
54557;SDS011;40452;50.080;20.040;2023-06-24T17:04:28;15.85;;;9.20;;
54557;SDS011;40452;50.080;20.040;2023-06-24T17:06:53;13.25;;;6.85;;
54557;SDS011;40452;50.080;20.040;2023-06-24T17:09:19;10.63;;;6.57;;
54557;SDS011;40452;50.080;20.040;2023-06-24T17:11:44;9.32;;;5.75;;
54557;SDS011;40452;50.080;20.040;2023-06-24T17:14:10;7.55;;;4.97;;
54557;SDS011;40452;50.080;20.040;2023-06-24T17:16:35;12.07;;;5.50;;
54557;SDS011;40452;50.080;20.040;2023-06-24T17:19:01;6.38;;;4.90;;
54557;SDS011;40452;50.080;20.040;2023-06-24T17:21:27;5.18;;;3.92;;
54557;SDS011;40452;50.080;20.040;2023-06-24T17:23:53;5.30;;;4.03;;
54557;SDS011;40452;50.080;20.040;2023-06-24T17:26:18;9.90;;;4.13;;
54557;SDS011;40452;50.080;20.040;2023-06-24T17:28:44;6.65;;;4.13;;
54557;SDS011;40452;50.080;20.040;2023-06-24T17:31:10;5.85;;;3.90;;
54557;SDS011;40452;50.080;20.040;2023-06-24T17:33:35;5.53;;;3.58;;
54557;SDS011;40452;50.080;20.040;2023-06-24T17:36:01;7.28;;;3.83;;
54557;SDS011;40452;50.080;20.040;2023-06-24T17:38:26;6.32;;;3.53;;
54557;SDS011;40452;50.080;20.040;2023-06-24T17:40:52;5.82;;;3.40;;
54557;SDS011;40452;50.080;20.040;2023-06-24T17:43:17;5.43;;;3.70;;
54557;SDS011;40452;50.080;20.040;2023-06-24T17:45:43;6.43;;;3.78;;
54557;SDS011;40452;50.080;20.040;2023-06-24T17:48:09;4.53;;;3.45;;
54557;SDS011;40452;50.080;20.040;2023-06-24T17:50:34;5.28;;;3.50;;
54557;SDS011;40452;50.080;20.040;2023-06-24T17:53:00;4.55;;;3.10;;
54557;SDS011;40452;50.080;20.040;2023-06-24T17:55:25;6.15;;;3.38;;
54557;SDS011;40452;50.080;20.040;2023-06-24T17:57:53;7.25;;;3.50;;
54557;SDS011;40452;50.080;20.040;2023-06-24T18:00:19;6.07;;;3.47;;
54557;SDS011;40452;50.080;20.040;2023-06-24T18:02:46;5.75;;;3.40;;
54557;SDS011;40452;50.080;20.040;2023-06-24T18:05:12;8.95;;;3.72;;
54557;SDS011;40452;50.080;20.040;2023-06-24T18:07:38;6.35;;;3.67;;
54557;SDS011;40452;50.080;20.040;2023-06-24T18:10:03;5.28;;;3.30;;